sensor_id;sensor_type;location;lat;lon;timestamp;pressure;altitude;pressure_sealevel;temperature;humidity
6389;BME280;3227;42.654;23.360;2022-10-04T00:02:31;94654.22;;;12.03;75.54
6389;BME280;3227;42.654;23.360;2022-10-04T00:05:04;94632.91;;;11.85;76.78
6389;BME280;3227;42.654;23.360;2022-10-04T00:07:34;94661.09;;;12.01;76.00
6389;BME280;3227;42.654;23.360;2022-10-04T00:10:13;94659.38;;;11.97;76.42
6389;BME280;3227;42.654;23.360;2022-10-04T00:12:46;94663.66;;;11.98;76.57
6389;BME280;3227;42.654;23.360;2022-10-04T00:15:18;94658.56;;;11.89;75.88
6389;BME280;3227;42.654;23.360;2022-10-04T00:17:59;94659.41;;;11.91;75.80
6389;BME280;3227;42.654;23.360;2022-10-04T00:20:57;94661.13;;;11.94;75.82
6389;BME280;3227;42.654;23.360;2022-10-04T00:23:27;94610.69;;;11.67;76.27
6389;BME280;3227;42.654;23.360;2022-10-04T00:25:56;94662.81;;;11.98;75.92
6389;BME280;3227;42.654;23.360;2022-10-04T00:28:31;94649.13;;;11.99;76.21
6389;BME280;3227;42.654;23.360;2022-10-04T00:31:16;94653.41;;;11.97;74.80
6389;BME280;3227;42.654;23.360;2022-10-04T00:33:44;94649.13;;;11.96;74.76
6389;BME280;3227;42.654;23.360;2022-10-04T00:36:35;94650.81;;;11.98;74.52
6389;BME280;3227;42.654;23.360;2022-10-04T00:39:14;94639.69;;;11.98;74.36
6389;BME280;3227;42.654;23.360;2022-10-04T00:41:52;94599.53;;;11.71;74.08
6389;BME280;3227;42.654;23.360;2022-10-04T00:44:26;94631.16;;;11.90;73.33
6389;BME280;3227;42.654;23.360;2022-10-04T00:46:56;94632.88;;;11.88;74.13
6389;BME280;3227;42.654;23.360;2022-10-04T00:49:28;94626.88;;;11.92;73.39
6389;BME280;3227;42.654;23.360;2022-10-04T00:52:02;94613.22;;;11.84;73.54
6389;BME280;3227;42.654;23.360;2022-10-04T00:54:32;94503.97;;;11.11;73.11
6389;BME280;3227;42.654;23.360;2022-10-04T00:57:04;94617.50;;;11.81;73.24
6389;BME280;3227;42.654;23.360;2022-10-04T00:59:34;94576.50;;;11.59;73.99
6389;BME280;3227;42.654;23.360;2022-10-04T01:02:06;94595.25;;;11.70;73.87
6389;BME280;3227;42.654;23.360;2022-10-04T01:04:41;94615.78;;;11.73;73.09
6389;BME280;3227;42.654;23.360;2022-10-04T01:07:12;94605.53;;;11.73;73.40
6389;BME280;3227;42.654;23.360;2022-10-04T01:09:45;94608.09;;;11.73;73.18
6389;BME280;3227;42.654;23.360;2022-10-04T01:12:23;94610.66;;;11.70;73.63
6389;BME280;3227;42.654;23.360;2022-10-04T01:14:55;94614.09;;;11.69;73.48
6389;BME280;3227;42.654;23.360;2022-10-04T01:17:27;94604.69;;;11.65;73.21
6389;BME280;3227;42.654;23.360;2022-10-04T01:19:54;94597.91;;;11.52;72.92
6389;BME280;3227;42.654;23.360;2022-10-04T01:22:37;94612.41;;;11.59;73.95
6389;BME280;3227;42.654;23.360;2022-10-04T01:25:06;94603.00;;;11.56;73.40
6389;BME280;3227;42.654;23.360;2022-10-04T01:27:42;94605.56;;;11.61;73.72
6389;BME280;3227;42.654;23.360;2022-10-04T01:30:11;94602.16;;;11.60;73.94
6389;BME280;3227;42.654;23.360;2022-10-04T01:32:38;94599.59;;;11.59;73.42
6389;BME280;3227;42.654;23.360;2022-10-04T01:35:08;94604.72;;;11.56;73.05
6389;BME280;3227;42.654;23.360;2022-10-04T01:37:37;94608.13;;;11.55;72.74
6389;BME280;3227;42.654;23.360;2022-10-04T01:40:06;94585.09;;;11.41;72.87
6389;BME280;3227;42.654;23.360;2022-10-04T01:42:39;94600.50;;;11.44;72.55
6389;BME280;3227;42.654;23.360;2022-10-04T01:45:14;94599.63;;;11.37;71.79
6389;BME280;3227;42.654;23.360;2022-10-04T01:47:48;94561.19;;;11.15;72.69
6389;BME280;3227;42.654;23.360;2022-10-04T01:50:23;94598.78;;;11.43;72.11
6389;BME280;3227;42.654;23.360;2022-10-04T01:52:56;94600.47;;;11.47;71.48
6389;BME280;3227;42.654;23.360;2022-10-04T01:55:29;94611.59;;;11.44;72.15
6389;BME280;3227;42.654;23.360;2022-10-04T01:58:01;94607.31;;;11.40;71.83
6389;BME280;3227;42.654;23.360;2022-10-04T02:00:34;94605.59;;;11.47;72.28
6389;BME280;3227;42.654;23.360;2022-10-04T02:03:03;94608.16;;;11.47;71.87
6389;BME280;3227;42.654;23.360;2022-10-04T02:05:38;94587.66;;;11.30;72.77
6389;BME280;3227;42.654;23.360;2022-10-04T02:08:10;94617.56;;;11.45;71.90
6389;BME280;3227;42.654;23.360;2022-10-04T02:10:41;94610.75;;;11.29;72.77
6389;BME280;3227;42.654;23.360;2022-10-04T02:13:11;94591.13;;;11.17;73.22
6389;BME280;3227;42.654;23.360;2022-10-04T02:15:39;94615.91;;;11.35;73.03
6389;BME280;3227;42.654;23.360;2022-10-04T02:18:09;94621.03;;;11.36;73.47
6389;BME280;3227;42.654;23.360;2022-10-04T02:20:38;94620.16;;;11.34;74.73
6389;BME280;3227;42.654;23.360;2022-10-04T02:23:08;94627.00;;;11.32;74.77
6389;BME280;3227;42.654;23.360;2022-10-04T02:25:36;94627.00;;;11.31;74.88
6389;BME280;3227;42.654;23.360;2022-10-04T02:28:04;94631.28;;;11.36;74.66
6389;BME280;3227;42.654;23.360;2022-10-04T02:30:35;94626.13;;;11.38;75.53
6389;BME280;3227;42.654;23.360;2022-10-04T02:33:04;94623.59;;;11.36;74.84
6389;BME280;3227;42.654;23.360;2022-10-04T02:35:32;94603.97;;;11.08;75.43
6389;BME280;3227;42.654;23.360;2022-10-04T02:38:09;94632.97;;;11.28;75.28
6389;BME280;3227;42.654;23.360;2022-10-04T02:40:43;94638.13;;;11.30;76.52
6389;BME280;3227;42.654;23.360;2022-10-04T02:43:15;94623.59;;;11.27;76.14
6389;BME280;3227;42.654;23.360;2022-10-04T02:45:48;94647.53;;;11.26;77.10
6389;BME280;3227;42.654;23.360;2022-10-04T02:48:30;94649.25;;;11.24;77.35
6389;BME280;3227;42.654;23.360;2022-10-04T02:51:04;94651.81;;;11.24;77.32
6389;BME280;3227;42.654;23.360;2022-10-04T02:53:37;94658.63;;;11.30;77.18
6389;BME280;3227;42.654;23.360;2022-10-04T02:56:08;94656.94;;;11.35;77.06
6389;BME280;3227;42.654;23.360;2022-10-04T02:58:37;94655.22;;;11.31;77.31
6389;BME280;3227;42.654;23.360;2022-10-04T03:01:06;94660.34;;;11.37;78.17
6389;BME280;3227;42.654;23.360;2022-10-04T03:03:44;94654.38;;;11.41;77.30
6389;BME280;3227;42.654;23.360;2022-10-04T03:06:14;94655.19;;;11.46;77.49
6389;BME280;3227;42.654;23.360;2022-10-04T03:08:46;94664.59;;;11.45;76.63
6389;BME280;3227;42.654;23.360;2022-10-04T03:11:15;94669.75;;;11.39;77.43
6389;BME280;3227;42.654;23.360;2022-10-04T03:13:46;94668.88;;;11.37;77.06
6389;BME280;3227;42.654;23.360;2022-10-04T03:16:14;94677.44;;;11.41;77.53
6389;BME280;3227;42.654;23.360;2022-10-04T03:18:41;94662.94;;;11.34;77.36
6389;BME280;3227;42.654;23.360;2022-10-04T03:21:12;94660.34;;;11.32;78.02
6389;BME280;3227;42.654;23.360;2022-10-04T03:23:41;94668.91;;;11.40;78.36
6389;BME280;3227;42.654;23.360;2022-10-04T03:26:20;94671.44;;;11.47;77.80
6389;BME280;3227;42.654;23.360;2022-10-04T03:28:51;94667.16;;;11.45;77.87
6389;BME280;3227;42.654;23.360;2022-10-04T03:31:18;94674.88;;;11.52;76.94
6389;BME280;3227;42.654;23.360;2022-10-04T03:33:46;94680.84;;;11.57;76.62
6389;BME280;3227;42.654;23.360;2022-10-04T03:36:15;94683.41;;;11.57;76.68
6389;BME280;3227;42.654;23.360;2022-10-04T03:38:44;94679.13;;;11.54;76.78
6389;BME280;3227;42.654;23.360;2022-10-04T03:41:14;94674.00;;;11.48;76.54
6389;BME280;3227;42.654;23.360;2022-10-04T03:43:44;94684.28;;;11.53;77.00
6389;BME280;3227;42.654;23.360;2022-10-04T03:46:13;94680.84;;;11.46;76.54
6389;BME280;3227;42.654;23.360;2022-10-04T03:48:44;94687.72;;;11.50;76.92
6389;BME280;3227;42.654;23.360;2022-10-04T03:51:16;94692.84;;;11.50;76.97
6389;BME280;3227;42.654;23.360;2022-10-04T03:53:45;94666.34;;;11.36;76.74
6389;BME280;3227;42.654;23.360;2022-10-04T03:56:18;94690.28;;;11.52;76.77
6389;BME280;3227;42.654;23.360;2022-10-04T03:58:46;94691.97;;;11.50;77.10
6389;BME280;3227;42.654;23.360;2022-10-04T04:01:24;94696.25;;;11.48;76.60
6389;BME280;3227;42.654;23.360;2022-10-04T04:04:00;94700.56;;;11.44;77.12
6389;BME280;3227;42.654;23.360;2022-10-04T04:06:35;94695.41;;;11.47;76.66
6389;BME280;3227;42.654;23.360;2022-10-04T04:09:04;94689.41;;;11.45;77.28
6389;BME280;3227;42.654;23.360;2022-10-04T04:11:34;94697.97;;;11.47;77.43
6389;BME280;3227;42.654;23.360;2022-10-04T04:14:05;94697.97;;;11.49;76.92
6389;BME280;3227;42.654;23.360;2022-10-04T04:16:35;94701.38;;;11.46;77.53
6389;BME280;3227;42.654;23.360;2022-10-04T04:19:08;94663.81;;;11.19;76.74
6389;BME280;3227;42.654;23.360;2022-10-04T04:21:37;94713.34;;;11.45;76.50
6389;BME280;3227;42.654;23.360;2022-10-04T04:24:06;94706.53;;;11.43;76.66
6389;BME280;3227;42.654;23.360;2022-10-04T04:26:42;94720.19;;;11.47;77.70
6389;BME280;3227;42.654;23.360;2022-10-04T04:29:16;94717.63;;;11.47;77.03
6389;BME280;3227;42.654;23.360;2022-10-04T04:31:47;94724.47;;;11.48;76.87
6389;BME280;3227;42.654;23.360;2022-10-04T04:34:19;94725.34;;;11.39;76.27
6389;BME280;3227;42.654;23.360;2022-10-04T04:36:47;94650.97;;;10.95;77.19
6389;BME280;3227;42.654;23.360;2022-10-04T04:39:15;94727.03;;;11.38;77.41
6389;BME280;3227;42.654;23.360;2022-10-04T04:42:08;94730.47;;;11.39;76.93
6389;BME280;3227;42.654;23.360;2022-10-04T04:44:38;94715.06;;;11.37;77.78
6389;BME280;3227;42.654;23.360;2022-10-04T04:47:22;94727.91;;;11.40;77.11
6389;BME280;3227;42.654;23.360;2022-10-04T04:49:52;94727.03;;;11.48;77.23
6389;BME280;3227;42.654;23.360;2022-10-04T04:52:20;94737.31;;;11.58;76.46
6389;BME280;3227;42.654;23.360;2022-10-04T04:54:48;94732.16;;;11.64;77.04
6389;BME280;3227;42.654;23.360;2022-10-04T04:57:16;94729.59;;;11.67;75.91
6389;BME280;3227;42.654;23.360;2022-10-04T04:59:45;94724.47;;;11.66;75.99
6389;BME280;3227;42.654;23.360;2022-10-04T05:02:30;94729.59;;;11.72;75.77
6389;BME280;3227;42.654;23.360;2022-10-04T05:05:16;94740.75;;;11.75;75.32
6389;BME280;3227;42.654;23.360;2022-10-04T05:07:43;94733.91;;;11.76;74.43
6389;BME280;3227;42.654;23.360;2022-10-04T05:10:30;94721.06;;;11.68;74.27
6389;BME280;3227;42.654;23.360;2022-10-04T05:12:59;94738.19;;;11.85;74.76
6389;BME280;3227;42.654;23.360;2022-10-04T05:15:31;94730.34;;;12.27;73.73
6389;BME280;3227;42.654;23.360;2022-10-04T05:17:59;94739.44;;;12.98;71.32
6389;BME280;3227;42.654;23.360;2022-10-04T05:20:27;94740.84;;;13.43;68.03
6389;BME280;3227;42.654;23.360;2022-10-04T05:22:56;94731.19;;;13.71;66.11
6389;BME280;3227;42.654;23.360;2022-10-04T05:25:27;94738.56;;;14.09;64.95
6389;BME280;3227;42.654;23.360;2022-10-04T05:27:55;94742.41;;;14.51;64.13
6389;BME280;3227;42.654;23.360;2022-10-04T05:30:36;94754.97;;;14.78;62.27
6389;BME280;3227;42.654;23.360;2022-10-04T05:33:07;94752.19;;;14.95;61.68
6389;BME280;3227;42.654;23.360;2022-10-04T05:35:45;94742.28;;;14.62;62.01
6389;BME280;3227;42.654;23.360;2022-10-04T05:38:23;94761.72;;;14.12;63.12
6389;BME280;3227;42.654;23.360;2022-10-04T05:40:59;94768.97;;;13.74;63.78
6389;BME280;3227;42.654;23.360;2022-10-04T05:43:35;94769.97;;;13.56;66.39
6389;BME280;3227;42.654;23.360;2022-10-04T05:46:14;94772.47;;;13.59;66.20
6389;BME280;3227;42.654;23.360;2022-10-04T05:48:43;94772.28;;;13.85;66.31
6389;BME280;3227;42.654;23.360;2022-10-04T05:51:22;94771.03;;;14.25;65.32
6389;BME280;3227;42.654;23.360;2022-10-04T05:53:50;94755.56;;;14.25;64.67
6389;BME280;3227;42.654;23.360;2022-10-04T05:56:32;94783.66;;;14.51;63.18
6389;BME280;3227;42.654;23.360;2022-10-04T05:59:12;94782.88;;;14.48;63.54
6389;BME280;3227;42.654;23.360;2022-10-04T06:01:52;94777.78;;;14.35;63.53
6389;BME280;3227;42.654;23.360;2022-10-04T06:04:30;94792.41;;;14.36;63.43
6389;BME280;3227;42.654;23.360;2022-10-04T06:07:03;94787.41;;;14.20;64.13
6389;BME280;3227;42.654;23.360;2022-10-04T06:09:55;94807.19;;;14.18;64.83
6389;BME280;3227;42.654;23.360;2022-10-04T06:12:34;94793.19;;;14.48;64.68
6389;BME280;3227;42.654;23.360;2022-10-04T06:15:16;94808.28;;;14.78;62.05
6389;BME280;3227;42.654;23.360;2022-10-04T06:18:00;94808.84;;;15.03;60.83
6389;BME280;3227;42.654;23.360;2022-10-04T06:23:47;94809.75;;;15.65;59.39
6389;BME280;3227;42.654;23.360;2022-10-04T06:26:20;94810.41;;;15.77;59.22
6389;BME280;3227;42.654;23.360;2022-10-04T06:28:52;94819.16;;;15.67;58.46
6389;BME280;3227;42.654;23.360;2022-10-04T06:31:43;94822.19;;;15.35;58.18
6389;BME280;3227;42.654;23.360;2022-10-04T06:37:13;94822.13;;;14.74;60.48
6389;BME280;3227;42.654;23.360;2022-10-04T06:40:06;94823.56;;;14.96;61.33
6389;BME280;3227;42.654;23.360;2022-10-04T06:42:47;94831.66;;;15.35;59.17
6389;BME280;3227;42.654;23.360;2022-10-04T06:45:33;94824.41;;;15.63;59.12
6389;BME280;3227;42.654;23.360;2022-10-04T06:48:19;94821.66;;;15.73;58.69
6389;BME280;3227;42.654;23.360;2022-10-04T06:50:56;94832.81;;;15.75;58.82
6389;BME280;3227;42.654;23.360;2022-10-04T06:53:34;94834.13;;;15.42;58.62
6389;BME280;3227;42.654;23.360;2022-10-04T06:56:15;94831.22;;;15.02;60.23
6389;BME280;3227;42.654;23.360;2022-10-04T07:01:47;94839.34;;;14.69;60.88
6389;BME280;3227;42.654;23.360;2022-10-04T07:04:24;94844.59;;;14.60;61.21
6389;BME280;3227;42.654;23.360;2022-10-04T07:07:11;94828.41;;;14.49;61.79
6389;BME280;3227;42.654;23.360;2022-10-04T07:10:08;94772.03;;;14.14;60.33
6389;BME280;3227;42.654;23.360;2022-10-04T07:12:44;94849.56;;;14.78;59.89
6389;BME280;3227;42.654;23.360;2022-10-04T07:15:18;94839.25;;;14.78;59.72
6389;BME280;3227;42.654;23.360;2022-10-04T07:17:47;94833.38;;;14.65;59.56
6389;BME280;3227;42.654;23.360;2022-10-04T07:20:19;94845.38;;;14.68;60.34
6389;BME280;3227;42.654;23.360;2022-10-04T07:22:52;94853.78;;;14.83;60.71
6389;BME280;3227;42.654;23.360;2022-10-04T07:25:23;94858.25;;;14.71;61.00
6389;BME280;3227;42.654;23.360;2022-10-04T07:27:55;94848.72;;;14.74;60.57
6389;BME280;3227;42.654;23.360;2022-10-04T07:30:40;94859.88;;;14.78;59.90
6389;BME280;3227;42.654;23.360;2022-10-04T07:33:13;94860.75;;;14.78;59.71
6389;BME280;3227;42.654;23.360;2022-10-04T07:35:45;94856.56;;;14.67;59.94
6389;BME280;3227;42.654;23.360;2022-10-04T07:38:19;94860.03;;;14.66;60.38
6389;BME280;3227;42.654;23.360;2022-10-04T07:41:00;94865.06;;;14.75;61.00
6389;BME280;3227;42.654;23.360;2022-10-04T07:43:31;94870.22;;;14.78;59.17
6389;BME280;3227;42.654;23.360;2022-10-04T07:46:03;94863.38;;;14.74;59.55
6389;BME280;3227;42.654;23.360;2022-10-04T07:48:32;94866.84;;;14.73;58.97
6389;BME280;3227;42.654;23.360;2022-10-04T07:51:15;94865.19;;;14.64;58.46
6389;BME280;3227;42.654;23.360;2022-10-04T07:53:47;94882.56;;;14.49;58.01
6389;BME280;3227;42.654;23.360;2022-10-04T07:56:21;94877.53;;;14.27;58.47
6389;BME280;3227;42.654;23.360;2022-10-04T07:59:03;94874.19;;;14.19;59.39
6389;BME280;3227;42.654;23.360;2022-10-04T08:01:41;94880.31;;;14.04;58.90
6389;BME280;3227;42.654;23.360;2022-10-04T08:04:30;94878.84;;;13.70;59.02
6389;BME280;3227;42.654;23.360;2022-10-04T08:07:09;94885.72;;;13.69;60.94
6389;BME280;3227;42.654;23.360;2022-10-04T08:09:46;94872.72;;;13.85;59.89
6389;BME280;3227;42.654;23.360;2022-10-04T08:12:23;94881.25;;;13.94;60.03
6389;BME280;3227;42.654;23.360;2022-10-04T08:14:54;94884.66;;;13.98;59.41
6389;BME280;3227;42.654;23.360;2022-10-04T08:17:43;94884.63;;;14.04;60.60
6389;BME280;3227;42.654;23.360;2022-10-04T08:20:33;94885.34;;;14.20;59.52
6389;BME280;3227;42.654;23.360;2022-10-04T08:23:17;94882.69;;;14.30;59.67
6389;BME280;3227;42.654;23.360;2022-10-04T08:25:56;94881.72;;;14.42;57.74
6389;BME280;3227;42.654;23.360;2022-10-04T08:28:35;94882.56;;;14.49;57.40
6389;BME280;3227;42.654;23.360;2022-10-04T08:31:31;94883.38;;;14.51;57.42
6389;BME280;3227;42.654;23.360;2022-10-04T08:34:27;94879.66;;;14.80;56.02
6389;BME280;3227;42.654;23.360;2022-10-04T08:37:06;94873.13;;;15.22;55.71
6389;BME280;3227;42.654;23.360;2022-10-04T08:39:49;94868.47;;;15.49;53.73
6389;BME280;3227;42.654;23.360;2022-10-04T08:42:52;94863.78;;;15.78;54.09
6389;BME280;3227;42.654;23.360;2022-10-04T08:49:02;94859.59;;;15.70;53.05
6389;BME280;3227;42.654;23.360;2022-10-04T08:52:10;94861.50;;;15.57;52.58
6389;BME280;3227;42.654;23.360;2022-10-04T08:55:10;94800.25;;;15.04;53.54
6389;BME280;3227;42.654;23.360;2022-10-04T08:58:22;94869.69;;;15.22;54.12
6389;BME280;3227;42.654;23.360;2022-10-04T09:00:59;94855.94;;;15.20;56.21
6389;BME280;3227;42.654;23.360;2022-10-04T09:04:26;94857.31;;;15.47;54.82
6389;BME280;3227;42.654;23.360;2022-10-04T09:07:25;94863.94;;;15.66;54.73
6389;BME280;3227;42.654;23.360;2022-10-04T09:10:13;94810.50;;;15.71;55.39
6389;BME280;3227;42.654;23.360;2022-10-04T09:15:49;94861.28;;;16.27;52.98
6389;BME280;3227;42.654;23.360;2022-10-04T09:18:37;94856.94;;;16.29;51.20
6389;BME280;3227;42.654;23.360;2022-10-04T09:21:19;94857.00;;;16.25;51.08
6389;BME280;3227;42.654;23.360;2022-10-04T09:27:11;94852.78;;;16.21;51.56
6389;BME280;3227;42.654;23.360;2022-10-04T09:30:10;94860.47;;;16.24;51.44
6389;BME280;3227;42.654;23.360;2022-10-04T09:36:07;94879.66;;;16.11;51.81
6389;BME280;3227;42.654;23.360;2022-10-04T09:38:58;94872.16;;;15.95;52.02
6389;BME280;3227;42.654;23.360;2022-10-04T09:42:01;94872.31;;;15.83;52.78
6389;BME280;3227;42.654;23.360;2022-10-04T09:44:52;94874.03;;;15.84;52.56
6389;BME280;3227;42.654;23.360;2022-10-04T09:47:43;94833.91;;;15.60;52.89
6389;BME280;3227;42.654;23.360;2022-10-04T09:50:38;94851.50;;;15.92;52.35
6389;BME280;3227;42.654;23.360;2022-10-04T09:53:22;94865.38;;;15.87;51.83
6389;BME280;3227;42.654;23.360;2022-10-04T09:59:09;94862.44;;;16.08;52.60
6389;BME280;3227;42.654;23.360;2022-10-04T10:02:01;94870.03;;;16.19;52.47
6389;BME280;3227;42.654;23.360;2022-10-04T10:04:42;94867.34;;;16.25;51.76
6389;BME280;3227;42.654;23.360;2022-10-04T10:07:35;94869.06;;;16.26;52.85
6389;BME280;3227;42.654;23.360;2022-10-04T10:10:14;94834.03;;;16.07;52.04
6389;BME280;3227;42.654;23.360;2022-10-04T10:13:11;94860.38;;;16.30;51.43
6389;BME280;3227;42.654;23.360;2022-10-04T10:16:02;94876.41;;;16.50;51.84
6389;BME280;3227;42.654;23.360;2022-10-04T10:18:43;94871.91;;;16.63;51.01
6389;BME280;3227;42.654;23.360;2022-10-04T10:21:30;94879.53;;;16.70;50.06
6389;BME280;3227;42.654;23.360;2022-10-04T10:24:15;94876.13;;;16.68;50.34
6389;BME280;3227;42.654;23.360;2022-10-04T10:26:59;94877.75;;;16.72;50.71
6389;BME280;3227;42.654;23.360;2022-10-04T10:32:37;94878.47;;;16.81;50.61
6389;BME280;3227;42.654;23.360;2022-10-04T10:35:24;94873.72;;;17.04;51.37
6389;BME280;3227;42.654;23.360;2022-10-04T10:38:17;94880.38;;;17.16;49.96
6389;BME280;3227;42.654;23.360;2022-10-04T10:44:16;94875.84;;;16.84;50.08
6389;BME280;3227;42.654;23.360;2022-10-04T10:47:09;94879.19;;;16.89;50.46
6389;BME280;3227;42.654;23.360;2022-10-04T10:49:51;94878.13;;;16.99;49.98
6389;BME280;3227;42.654;23.360;2022-10-04T10:55:47;94869.63;;;16.92;49.69
6389;BME280;3227;42.654;23.360;2022-10-04T10:58:44;94884.78;;;17.12;49.08
6389;BME280;3227;42.654;23.360;2022-10-04T11:01:41;94886.00;;;16.94;49.51
6389;BME280;3227;42.654;23.360;2022-10-04T11:04:26;94821.78;;;16.18;50.43
6389;BME280;3227;42.654;23.360;2022-10-04T11:07:39;94885.84;;;16.54;50.59
6389;BME280;3227;42.654;23.360;2022-10-04T11:13:19;94888.22;;;16.66;50.93
6389;BME280;3227;42.654;23.360;2022-10-04T11:16:27;94876.94;;;16.70;49.99
6389;BME280;3227;42.654;23.360;2022-10-04T11:19:24;94890.47;;;16.85;51.09
6389;BME280;3227;42.654;23.360;2022-10-04T11:22:34;94888.00;;;16.79;
6389;BME280;3227;42.654;23.360;2022-10-04T11:28:19;94887.72;;;16.94;50.77
6389;BME280;3227;42.654;23.360;2022-10-04T11:31:25;94892.59;;;17.09;48.83
6389;BME280;3227;42.654;23.360;2022-10-04T11:34:28;94891.41;;;17.25;48.69
6389;BME280;3227;42.654;23.360;2022-10-04T11:37:06;94887.63;;;17.41;48.67
6389;BME280;3227;42.654;23.360;2022-10-04T11:40:06;94882.84;;;17.65;47.45
6389;BME280;3227;42.654;23.360;2022-10-04T11:42:54;94866.53;;;17.60;48.11
6389;BME280;3227;42.654;23.360;2022-10-04T11:45:52;94885.72;;;17.91;47.64
6389;BME280;3227;42.654;23.360;2022-10-04T11:48:31;94893.22;;;18.03;46.39
6389;BME280;3227;42.654;23.360;2022-10-04T11:51:36;94884.81;;;17.94;46.59
6389;BME280;3227;42.654;23.360;2022-10-04T11:57:27;94900.22;;;18.00;47.51
6389;BME280;3227;42.654;23.360;2022-10-04T12:00:03;94897.00;;;17.88;46.23
6389;BME280;3227;42.654;23.360;2022-10-04T12:02:59;94898.16;;;17.77;46.94
6389;BME280;3227;42.654;23.360;2022-10-04T12:06:02;94902.16;;;17.48;47.70
6389;BME280;3227;42.654;23.360;2022-10-04T12:08:46;94890.34;;;17.35;48.20
6389;BME280;3227;42.654;23.360;2022-10-04T12:14:41;94889.53;;;17.33;48.03
6389;BME280;3227;42.654;23.360;2022-10-04T12:20:39;94886.25;;;17.24;47.39
6389;BME280;3227;42.654;23.360;2022-10-04T12:23:47;94892.00;;;17.38;47.64
6389;BME280;3227;42.654;23.360;2022-10-04T12:26:53;94877.09;;;17.50;47.13
6389;BME280;3227;42.654;23.360;2022-10-04T12:29:51;94872.91;;;17.45;47.08
6389;BME280;3227;42.654;23.360;2022-10-04T12:32:25;94889.47;;;17.78;46.17
6389;BME280;3227;42.654;23.360;2022-10-04T12:35:01;94888.50;;;17.82;45.69
6389;BME280;3227;42.654;23.360;2022-10-04T12:37:35;94889.28;;;17.87;45.45
6389;BME280;3227;42.654;23.360;2022-10-04T12:40:27;94891.03;;;17.85;46.30
6389;BME280;3227;42.654;23.360;2022-10-04T12:43:06;94898.72;;;17.88;45.48
6389;BME280;3227;42.654;23.360;2022-10-04T12:45:54;94893.34;;;17.97;45.12
6389;BME280;3227;42.654;23.360;2022-10-04T12:48:42;94902.09;;;17.93;44.87
6389;BME280;3227;42.654;23.360;2022-10-04T12:51:26;94901.69;;;17.71;45.59
6389;BME280;3227;42.654;23.360;2022-10-04T12:54:02;94900.78;;;17.74;46.04
6389;BME280;3227;42.654;23.360;2022-10-04T12:56:44;94896.56;;;17.70;46.30
6389;BME280;3227;42.654;23.360;2022-10-04T12:59:34;94898.94;;;17.79;45.69
6389;BME280;3227;42.654;23.360;2022-10-04T13:02:19;94905.84;;;17.80;45.69
6389;BME280;3227;42.654;23.360;2022-10-04T13:04:53;94900.94;;;17.68;46.55
6389;BME280;3227;42.654;23.360;2022-10-04T13:07:36;94897.13;;;17.42;46.05
6389;BME280;3227;42.654;23.360;2022-10-04T13:10:24;94890.66;;;17.20;46.62
6389;BME280;3227;42.654;23.360;2022-10-04T13:13:39;94884.47;;;17.27;45.76
6389;BME280;3227;42.654;23.360;2022-10-04T13:16:13;94884.34;;;17.33;46.88
6389;BME280;3227;42.654;23.360;2022-10-04T13:18:51;94884.00;;;17.50;46.33
6389;BME280;3227;42.654;23.360;2022-10-04T13:21:49;94886.38;;;17.61;46.37
6389;BME280;3227;42.654;23.360;2022-10-04T13:24:25;94887.59;;;17.44;45.11
6389;BME280;3227;42.654;23.360;2022-10-04T13:26:56;94881.19;;;17.19;45.53
6389;BME280;3227;42.654;23.360;2022-10-04T13:29:30;94881.84;;;16.86;46.12
6389;BME280;3227;42.654;23.360;2022-10-04T13:32:03;94887.00;;;16.86;46.94
6389;BME280;3227;42.654;23.360;2022-10-04T13:34:39;94890.53;;;16.80;46.87
6389;BME280;3227;42.654;23.360;2022-10-04T13:37:23;94878.53;;;16.79;47.25
6389;BME280;3227;42.654;23.360;2022-10-04T13:43:00;94893.28;;;16.72;48.00
6389;BME280;3227;42.654;23.360;2022-10-04T13:45:42;94839.50;;;16.39;48.15
6389;BME280;3227;42.654;23.360;2022-10-04T13:48:29;94896.81;;;16.68;47.59
6389;BME280;3227;42.654;23.360;2022-10-04T13:54:16;94899.28;;;16.76;48.67
6389;BME280;3227;42.654;23.360;2022-10-04T13:57:19;94908.59;;;16.85;48.71
6389;BME280;3227;42.654;23.360;2022-10-04T13:59:52;94902.38;;;16.95;48.81
6389;BME280;3227;42.654;23.360;2022-10-04T14:02:41;94900.97;;;16.77;48.74
6389;BME280;3227;42.654;23.360;2022-10-04T14:05:36;94909.31;;;16.42;48.94
6389;BME280;3227;42.654;23.360;2022-10-04T14:18:01;94930.19;;;15.72;51.05
6389;BME280;3227;42.654;23.360;2022-10-04T14:21:03;94931.28;;;15.54;51.42
6389;BME280;3227;42.654;23.360;2022-10-04T14:24:00;94933.84;;;15.52;51.60
6389;BME280;3227;42.654;23.360;2022-10-04T14:26:45;94941.63;;;15.54;52.35
6389;BME280;3227;42.654;23.360;2022-10-04T14:29:39;94901.38;;;15.33;52.57
6389;BME280;3227;42.654;23.360;2022-10-04T14:32:43;94944.88;;;15.68;51.96
6389;BME280;3227;42.654;23.360;2022-10-04T14:35:16;94948.22;;;15.76;52.13
6389;BME280;3227;42.654;23.360;2022-10-04T14:38:11;94946.47;;;15.78;51.64
6389;BME280;3227;42.654;23.360;2022-10-04T14:46:48;94948.31;;;15.67;51.68
6389;BME280;3227;42.654;23.360;2022-10-04T14:49:34;94961.34;;;15.61;51.94
6389;BME280;3227;42.654;23.360;2022-10-04T14:52:17;94964.03;;;15.49;52.55
6389;BME280;3227;42.654;23.360;2022-10-04T14:54:51;94960.63;;;15.45;53.30
6389;BME280;3227;42.654;23.360;2022-10-04T14:57:26;94898.34;;;14.99;53.72
6389;BME280;3227;42.654;23.360;2022-10-04T15:00:16;94963.41;;;15.29;54.00
6389;BME280;3227;42.654;23.360;2022-10-04T15:03:18;94974.63;;;15.26;54.77
6389;BME280;3227;42.654;23.360;2022-10-04T15:06:19;94978.16;;;15.17;55.07
6389;BME280;3227;42.654;23.360;2022-10-04T15:09:15;94980.00;;;15.06;54.91
6389;BME280;3227;42.654;23.360;2022-10-04T15:11:49;94989.59;;;14.91;54.99
6389;BME280;3227;42.654;23.360;2022-10-04T15:14:27;94996.53;;;14.84;55.20
6389;BME280;3227;42.654;23.360;2022-10-04T15:17:03;95002.63;;;14.80;55.88
6389;BME280;3227;42.654;23.360;2022-10-04T15:19:42;95004.34;;;14.79;56.24
6389;BME280;3227;42.654;23.360;2022-10-04T15:22:21;95003.50;;;14.77;55.84
6389;BME280;3227;42.654;23.360;2022-10-04T15:24:53;94980.47;;;14.55;56.54
6389;BME280;3227;42.654;23.360;2022-10-04T15:27:46;95008.66;;;14.74;57.09
6389;BME280;3227;42.654;23.360;2022-10-04T15:30:24;95012.16;;;14.67;57.51